createdAt,value
2022-12-03T00:01:58.987Z,62.19
2022-12-03T00:04:25.484Z,62.19
2022-12-03T00:06:52.038Z,62.51
2022-12-03T00:09:18.511Z,61.71
2022-12-03T00:11:45.053Z,62.14
2022-12-03T00:14:11.618Z,62.50
2022-12-03T00:16:38.046Z,61.90
2022-12-03T00:19:04.541Z,61.76
2022-12-03T00:21:31.003Z,62.08
2022-12-03T00:23:57.469Z,61.70
2022-12-03T00:26:23.913Z,62.00
2022-12-03T00:28:50.436Z,61.63
2022-12-03T00:31:17.547Z,61.70
2022-12-03T00:33:44.060Z,62.03
2022-12-03T00:36:10.469Z,62.39
2022-12-03T00:38:37.094Z,62.86
2022-12-03T00:41:03.589Z,62.31
2022-12-03T00:43:30.084Z,62.09
2022-12-03T00:45:56.717Z,62.04
2022-12-03T00:48:23.215Z,62.42
2022-12-03T00:50:49.749Z,62.64
2022-12-03T00:53:16.209Z,62.62
2022-12-03T00:55:42.642Z,62.71
2022-12-03T00:58:09.448Z,63.04
2022-12-03T01:00:37.181Z,62.43
2022-12-03T01:03:04.207Z,62.26
2022-12-03T01:05:30.789Z,61.84
2022-12-03T01:07:57.334Z,62.17
2022-12-03T01:10:23.939Z,62.48
2022-12-03T01:12:50.380Z,62.34
2022-12-03T01:15:16.930Z,62.39
2022-12-03T01:17:43.491Z,62.08
2022-12-03T01:20:11.354Z,62.80
2022-12-03T01:22:37.883Z,62.45
2022-12-03T01:25:04.989Z,62.14
2022-12-03T01:27:31.400Z,62.74
2022-12-03T01:29:57.856Z,62.70
2022-12-03T01:32:24.292Z,62.61
2022-12-03T01:34:54.465Z,62.36
2022-12-03T01:37:25.131Z,62.23
2022-12-03T01:39:52.168Z,61.91
2022-12-03T01:42:27.000Z,61.78
2022-12-03T01:44:57.122Z,61.60
2022-12-03T01:47:32.088Z,61.56
2022-12-03T01:50:08.555Z,62.49
2022-12-03T01:52:38.853Z,62.57
2022-12-03T01:55:13.501Z,62.01
2022-12-03T01:57:45.113Z,61.58
2022-12-03T02:00:22.858Z,61.15
2022-12-03T02:03:01.693Z,61.53
2022-12-03T02:05:33.929Z,61.16
2022-12-03T02:08:01.024Z,60.83
2022-12-03T02:10:35.785Z,61.21
2022-12-03T02:13:08.241Z,60.53
2022-12-03T02:15:38.017Z,61.64
2022-12-03T02:18:04.981Z,61.37
2022-12-03T02:20:42.109Z,61.44
2022-12-03T02:23:44.316Z,60.68
2022-12-03T02:26:11.131Z,61.00
2022-12-03T02:28:38.377Z,60.61
2022-12-03T02:31:05.262Z,60.78
2022-12-03T02:33:32.381Z,61.00
2022-12-03T02:36:03.288Z,61.42
2022-12-03T02:38:34.178Z,61.28
2022-12-03T02:41:08.334Z,60.78
2022-12-03T02:43:35.595Z,60.69
2022-12-03T02:46:04.698Z,60.27
2022-12-03T02:48:39.558Z,59.96
2022-12-03T02:51:10.424Z,59.95
2022-12-03T02:53:49.227Z,60.03
2022-12-03T02:56:23.287Z,60.14
2022-12-03T02:58:54.920Z,60.81
2022-12-03T03:01:21.431Z,60.70
2022-12-03T03:03:49.525Z,60.87
2022-12-03T03:06:18.218Z,60.67
2022-12-03T03:08:45.156Z,60.48
2022-12-03T03:11:11.917Z,60.52
2022-12-03T03:13:39.680Z,60.63
2022-12-03T03:16:08.289Z,60.23
2022-12-03T03:18:36.244Z,60.39
2022-12-03T03:21:04.438Z,60.01
2022-12-03T03:23:31.326Z,60.60
2022-12-03T03:26:09.793Z,60.45
2022-12-03T03:28:42.176Z,60.80
2022-12-03T03:31:12.531Z,60.54
2022-12-03T03:33:43.045Z,60.78
2022-12-03T03:36:10.934Z,60.64
2022-12-03T03:38:38.983Z,60.85
2022-12-03T03:41:09.034Z,60.76
2022-12-03T03:43:38.750Z,61.03
2022-12-03T03:46:07.217Z,61.28
2022-12-03T03:48:35.727Z,61.26
2022-12-03T03:51:08.730Z,61.08
2022-12-03T03:53:47.963Z,60.44
2022-12-03T03:56:17.468Z,60.77
2022-12-03T03:58:43.994Z,60.61
2022-12-03T04:01:14.140Z,60.89
2022-12-03T04:03:41.032Z,60.60
2022-12-03T04:06:08.264Z,60.29
2022-12-03T04:08:34.755Z,60.19
2022-12-03T04:11:20.029Z,59.82
2022-12-03T04:13:46.551Z,60.00
2022-12-03T04:16:13.059Z,60.45
2022-12-03T04:18:45.602Z,60.25
2022-12-03T04:21:40.814Z,60.08
2022-12-03T04:24:10.554Z,60.12
2022-12-03T04:26:56.811Z,60.00
2022-12-03T04:29:23.508Z,59.22
2022-12-03T04:32:08.803Z,60.48
2022-12-03T04:34:54.408Z,60.89
2022-12-03T04:37:21.153Z,61.00
2022-12-03T04:39:47.944Z,61.02
2022-12-03T04:42:14.471Z,60.40
2022-12-03T04:44:41.026Z,60.46
2022-12-03T04:47:11.002Z,60.31
2022-12-03T04:49:45.568Z,60.42
2022-12-03T04:52:14.538Z,60.65
2022-12-03T04:54:41.964Z,60.43
2022-12-03T04:57:09.641Z,60.91
2022-12-03T04:59:37.189Z,60.83
2022-12-03T05:02:06.221Z,61.02
2022-12-03T05:04:33.548Z,60.31
2022-12-03T05:07:00.025Z,60.30
2022-12-03T05:09:26.577Z,60.11
2022-12-03T05:11:53.096Z,59.64
2022-12-03T05:14:19.585Z,59.76
2022-12-03T05:16:46.122Z,59.82
2022-12-03T05:19:12.613Z,59.69
2022-12-03T05:21:39.096Z,59.68
2022-12-03T05:24:06.240Z,59.78
2022-12-03T05:26:32.764Z,60.33
2022-12-03T05:28:59.256Z,60.54
2022-12-03T05:31:25.739Z,60.73
2022-12-03T05:33:52.364Z,60.30
2022-12-03T05:36:18.880Z,60.86
2022-12-03T05:38:45.327Z,60.03
2022-12-03T05:41:30.268Z,59.91
2022-12-03T05:43:57.047Z,59.97
2022-12-03T05:46:23.578Z,60.65
2022-12-03T05:48:50.076Z,60.57
2022-12-03T05:51:16.642Z,61.12
2022-12-03T05:53:43.184Z,61.43
2022-12-03T05:56:09.713Z,61.24
2022-12-03T05:58:36.258Z,61.28
2022-12-03T06:01:02.780Z,61.53
2022-12-03T06:03:29.349Z,61.70
2022-12-03T06:05:55.913Z,62.03
2022-12-03T06:08:22.349Z,61.79
2022-12-03T06:10:48.848Z,61.25
2022-12-03T06:13:15.329Z,61.71
2022-12-03T06:15:44.027Z,61.86
2022-12-03T06:18:11.837Z,61.02
2022-12-03T06:20:38.368Z,61.70
2022-12-03T06:23:04.919Z,61.19
2022-12-03T06:25:31.448Z,61.26
2022-12-03T06:27:57.926Z,61.26
2022-12-03T06:30:24.335Z,61.24
2022-12-03T06:32:50.933Z,61.26
2022-12-03T06:35:17.394Z,61.26
2022-12-03T06:37:43.810Z,61.15
2022-12-03T06:40:11.106Z,60.68
2022-12-03T06:42:37.588Z,60.22
2022-12-03T06:45:04.625Z,60.34
2022-12-03T06:47:31.056Z,60.33
2022-12-03T06:49:57.519Z,61.11
2022-12-03T06:52:24.027Z,61.23
2022-12-03T06:54:50.757Z,61.46
2022-12-03T06:57:17.390Z,61.24
2022-12-03T06:59:43.871Z,61.05
2022-12-03T07:02:12.319Z,61.60
2022-12-03T07:04:42.141Z,61.47
2022-12-03T07:07:12.465Z,61.59
2022-12-03T07:09:38.956Z,61.18
2022-12-03T07:12:05.859Z,60.80
2022-12-03T07:14:32.364Z,60.64
2022-12-03T07:16:58.856Z,60.87
2022-12-03T07:19:29.242Z,60.80
2022-12-03T07:21:58.973Z,60.86
2022-12-03T07:24:25.448Z,60.84
2022-12-03T07:26:52.105Z,61.18
2022-12-03T07:29:18.578Z,60.45
2022-12-03T07:31:45.073Z,60.71
2022-12-03T07:34:11.708Z,60.53
2022-12-03T07:36:38.232Z,60.66
2022-12-03T07:39:05.363Z,61.08
2022-12-03T07:41:31.974Z,61.42
2022-12-03T07:43:58.542Z,60.69
2022-12-03T07:46:25.120Z,60.67
2022-12-03T07:48:51.649Z,61.05
2022-12-03T07:51:18.217Z,61.32
2022-12-03T07:53:44.725Z,60.86
2022-12-03T07:56:11.194Z,60.95
2022-12-03T07:58:37.952Z,61.23
2022-12-03T08:01:04.690Z,60.86
2022-12-03T08:03:31.233Z,60.89
2022-12-03T08:05:57.688Z,61.44
2022-12-03T08:08:24.157Z,61.01
2022-12-03T08:10:50.769Z,61.04
2022-12-03T08:13:19.551Z,60.96
2022-12-03T08:15:46.475Z,60.61
2022-12-03T08:18:20.362Z,59.92
2022-12-03T08:20:50.350Z,60.26
2022-12-03T08:23:25.520Z,60.32
2022-12-03T08:25:53.337Z,60.75
2022-12-03T08:28:27.036Z,60.85
2022-12-03T08:31:19.494Z,61.34
2022-12-03T08:33:52.850Z,61.44
2022-12-03T08:36:29.256Z,61.39
2022-12-03T08:39:01.081Z,61.11
2022-12-03T08:41:48.448Z,61.32
2022-12-03T08:44:29.422Z,61.30
2022-12-03T08:49:32.749Z,62.00
2022-12-03T08:52:09.734Z,60.96
2022-12-03T08:54:36.280Z,61.25
2022-12-03T08:57:27.808Z,60.82
2022-12-03T09:00:23.422Z,60.97
2022-12-03T09:02:54.241Z,60.40
2022-12-03T09:05:32.302Z,60.38
2022-12-03T09:07:58.884Z,60.17
2022-12-03T09:10:25.428Z,59.92
2022-12-03T09:12:51.960Z,59.90
2022-12-03T09:15:18.573Z,59.43
2022-12-03T09:17:45.201Z,60.21
2022-12-03T09:20:11.984Z,59.78
2022-12-03T09:22:38.412Z,59.83
2022-12-03T09:25:05.514Z,60.12
2022-12-03T09:27:31.987Z,60.15
2022-12-03T09:29:58.936Z,60.47
2022-12-03T09:32:25.584Z,60.00
2022-12-03T09:34:52.579Z,60.19
2022-12-03T09:37:19.343Z,60.79
2022-12-03T09:39:45.829Z,60.67
2022-12-03T09:42:12.330Z,60.95
2022-12-03T09:44:39.045Z,61.60
2022-12-03T09:47:06.882Z,61.44
2022-12-03T09:49:38.146Z,61.76
2022-12-03T09:52:07.236Z,61.82
2022-12-03T09:54:34.528Z,61.31
2022-12-03T09:57:04.084Z,61.51
2022-12-03T09:59:34.634Z,61.62
2022-12-03T10:02:02.545Z,61.92
2022-12-03T10:04:30.516Z,61.86
2022-12-03T10:06:58.820Z,61.79
2022-12-03T10:09:29.052Z,60.75
2022-12-03T10:11:58.753Z,61.00
2022-12-03T10:14:26.037Z,61.23
2022-12-03T10:16:52.642Z,61.24
2022-12-03T10:19:35.384Z,59.85
2022-12-03T10:22:01.899Z,60.60
2022-12-03T10:24:34.248Z,60.00
2022-12-03T10:27:29.642Z,59.43
2022-12-03T10:30:02.132Z,60.02
2022-12-03T10:32:48.586Z,60.38
2022-12-03T10:35:41.312Z,61.02
2022-12-03T10:38:22.289Z,60.94
2022-12-03T10:40:49.512Z,61.66
2022-12-03T10:43:18.941Z,61.99
2022-12-03T10:45:47.637Z,61.74
2022-12-03T10:48:21.272Z,61.61
2022-12-03T10:50:53.564Z,60.77
2022-12-03T10:53:29.474Z,60.75
2022-12-03T10:55:59.408Z,60.95
2022-12-03T10:58:30.253Z,60.46
2022-12-03T11:01:00.853Z,60.85
2022-12-03T11:03:33.787Z,59.68
2022-12-03T11:06:02.553Z,60.07
2022-12-03T11:08:36.580Z,60.71
2022-12-03T11:11:16.125Z,60.35
2022-12-03T11:13:56.369Z,59.82
2022-12-03T11:16:41.216Z,58.92
2022-12-03T11:19:19.651Z,59.06
2022-12-03T11:22:25.329Z,59.24
2022-12-03T11:25:26.244Z,59.20
2022-12-03T11:28:14.357Z,59.37
2022-12-03T11:30:50.552Z,58.61
2022-12-03T11:33:28.589Z,59.27
2022-12-03T11:36:04.007Z,58.84
2022-12-03T11:38:53.849Z,58.92
2022-12-03T11:41:33.939Z,58.94
2022-12-03T11:44:30.351Z,59.32
2022-12-03T11:46:59.300Z,60.00
2022-12-03T11:49:38.151Z,60.53
2022-12-03T11:52:23.816Z,59.73
2022-12-03T11:54:59.185Z,59.89
2022-12-03T11:57:32.031Z,60.04
2022-12-03T12:00:16.217Z,59.89
2022-12-03T12:02:43.936Z,59.98
2022-12-03T12:05:20.855Z,59.93
2022-12-03T12:07:48.338Z,60.05
2022-12-03T12:10:49.041Z,59.76
2022-12-03T12:13:44.674Z,59.92
2022-12-03T12:16:11.643Z,60.75
2022-12-03T12:18:43.175Z,60.76
2022-12-03T12:21:48.360Z,60.26
2022-12-03T12:24:41.100Z,59.58
2022-12-03T12:27:10.372Z,59.22
2022-12-03T12:29:39.705Z,59.41
2022-12-03T12:32:09.254Z,59.69
2022-12-03T12:34:42.896Z,60.11
2022-12-03T12:37:26.133Z,60.94
2022-12-03T12:39:56.646Z,61.21
2022-12-03T12:42:42.586Z,61.52
2022-12-03T12:45:09.231Z,61.47
2022-12-03T12:47:36.470Z,60.82
2022-12-03T12:50:11.343Z,60.27
2022-12-03T12:52:50.579Z,60.23
2022-12-03T12:55:17.778Z,60.52
2022-12-03T12:57:44.504Z,60.15
2022-12-03T13:00:18.800Z,60.07
2022-12-03T13:02:56.465Z,60.69
2022-12-03T13:05:24.474Z,60.78
2022-12-03T13:07:53.009Z,60.31
2022-12-03T13:10:39.074Z,60.11
2022-12-03T13:13:44.008Z,59.80
2022-12-03T13:16:30.359Z,60.01
2022-12-03T13:19:01.462Z,60.00
2022-12-03T13:21:39.804Z,59.66
2022-12-03T13:24:37.145Z,58.65
2022-12-03T13:27:35.346Z,59.44
2022-12-03T13:30:15.631Z,59.53
2022-12-03T13:32:43.477Z,59.38
2022-12-03T13:35:09.879Z,59.51
2022-12-03T13:37:37.559Z,60.02
2022-12-03T13:40:30.711Z,59.57
2022-12-03T13:42:58.972Z,59.98
2022-12-03T13:45:39.928Z,60.45
2022-12-03T13:48:23.080Z,59.93
2022-12-03T13:50:52.328Z,60.19
2022-12-03T13:53:36.722Z,59.63
2022-12-03T13:56:03.051Z,59.48
2022-12-03T13:58:29.521Z,59.89
2022-12-03T14:00:56.076Z,60.06
2022-12-03T14:03:23.328Z,59.85
2022-12-03T14:05:49.862Z,59.51
2022-12-03T14:08:16.578Z,59.35
2022-12-03T14:10:43.183Z,59.59
2022-12-03T14:13:09.707Z,59.69
2022-12-03T14:15:36.203Z,59.10
2022-12-03T14:18:02.803Z,59.47
2022-12-03T14:20:29.339Z,59.01
2022-12-03T14:22:59.345Z,58.86
2022-12-03T14:25:26.304Z,58.95
2022-12-03T14:27:52.744Z,57.88
2022-12-03T14:30:19.234Z,58.19
2022-12-03T14:32:45.772Z,58.87
2022-12-03T14:35:12.221Z,59.94
2022-12-03T14:37:38.716Z,59.39
2022-12-03T14:40:08.845Z,59.09
2022-12-03T14:42:36.407Z,59.11
2022-12-03T14:45:03.856Z,59.02
2022-12-03T14:47:30.496Z,58.78
2022-12-03T14:49:57.291Z,58.32
2022-12-03T14:52:23.836Z,58.32
2022-12-03T14:54:50.267Z,59.28
2022-12-03T14:57:17.184Z,58.92
2022-12-03T14:59:44.956Z,58.83
2022-12-03T15:02:12.876Z,58.85
2022-12-03T15:04:41.308Z,59.35
2022-12-03T15:07:08.871Z,58.69
2022-12-03T15:09:35.427Z,59.56
2022-12-03T15:12:01.956Z,59.60
2022-12-03T15:14:29.021Z,59.92
2022-12-03T15:16:55.679Z,60.23
2022-12-03T15:19:22.156Z,60.39
2022-12-03T15:21:48.643Z,60.03
2022-12-03T15:24:15.144Z,59.66
2022-12-03T15:26:41.617Z,59.42
2022-12-03T15:29:08.067Z,59.09
2022-12-03T15:31:34.770Z,58.92
2022-12-03T15:34:01.383Z,59.29
2022-12-03T15:36:27.900Z,60.01
2022-12-03T15:38:54.355Z,60.59
2022-12-03T15:41:29.943Z,60.41
2022-12-03T15:44:00.065Z,60.27
2022-12-03T15:46:27.847Z,60.19
2022-12-03T15:48:55.465Z,60.33
2022-12-03T15:51:22.014Z,60.43
2022-12-03T15:53:48.575Z,59.91
2022-12-03T15:56:15.104Z,59.78
2022-12-03T15:58:41.717Z,59.60
2022-12-03T16:01:09.307Z,59.85
2022-12-03T16:03:36.700Z,60.12
2022-12-03T16:06:03.460Z,60.25
2022-12-03T16:08:29.983Z,60.01
2022-12-03T16:10:56.525Z,60.41
2022-12-03T16:13:23.139Z,59.74
2022-12-03T16:15:49.717Z,58.68
2022-12-03T16:18:16.321Z,60.03
2022-12-03T16:20:42.835Z,60.52
2022-12-03T16:23:09.427Z,60.50
2022-12-03T16:25:36.139Z,60.93
2022-12-03T16:28:03.471Z,60.59
2022-12-03T16:30:30.015Z,60.80
2022-12-03T16:32:56.538Z,60.91
2022-12-03T16:35:23.105Z,61.17
2022-12-03T16:37:49.589Z,61.64
2022-12-03T16:40:16.232Z,61.33
2022-12-03T16:42:42.741Z,61.39
2022-12-03T16:45:09.839Z,61.23
2022-12-03T16:47:36.384Z,61.40
2022-12-03T16:50:07.437Z,61.02
2022-12-03T16:52:35.456Z,61.38
2022-12-03T16:55:02.075Z,61.34
2022-12-03T16:57:33.412Z,61.06
2022-12-03T17:00:00.861Z,60.97
2022-12-03T17:02:27.778Z,61.96
2022-12-03T17:04:54.571Z,61.78
2022-12-03T17:07:21.116Z,61.11
2022-12-03T17:09:47.597Z,61.48
2022-12-03T17:12:14.080Z,61.03
2022-12-03T17:14:40.551Z,61.60
2022-12-03T17:17:07.057Z,61.69
2022-12-03T17:19:33.569Z,62.23
2022-12-03T17:22:00.079Z,62.27
2022-12-03T17:24:26.564Z,62.43
2022-12-03T17:26:53.041Z,62.72
2022-12-03T17:29:19.484Z,62.55
2022-12-03T17:31:45.949Z,63.78
2022-12-03T17:34:12.491Z,63.85
2022-12-03T17:36:38.995Z,63.85
2022-12-03T17:39:05.484Z,63.45
2022-12-03T17:41:31.958Z,63.66
2022-12-03T17:43:58.401Z,63.25
2022-12-03T17:46:25.016Z,63.21
2022-12-03T17:48:51.666Z,63.27
2022-12-03T17:51:20.757Z,62.43
2022-12-03T17:53:47.345Z,62.03
2022-12-03T17:56:13.837Z,61.83
2022-12-03T17:58:40.296Z,62.25
2022-12-03T18:01:08.511Z,62.68
2022-12-03T18:03:34.984Z,62.98
2022-12-03T18:06:01.800Z,62.96
2022-12-03T18:08:28.699Z,62.78
2022-12-03T18:10:55.338Z,62.57
2022-12-03T18:13:22.163Z,62.43
2022-12-03T18:15:48.742Z,62.44
2022-12-03T18:18:15.270Z,63.13
2022-12-03T18:20:41.886Z,62.29
2022-12-03T18:23:08.443Z,62.65
2022-12-03T18:25:34.976Z,62.83
2022-12-03T18:28:01.499Z,62.55
2022-12-03T18:30:27.949Z,62.48
2022-12-03T18:32:54.755Z,62.66
2022-12-03T18:35:21.378Z,62.25
2022-12-03T18:37:51.016Z,62.10
2022-12-03T18:40:22.465Z,62.34
2022-12-03T18:42:49.073Z,61.93
2022-12-03T18:45:16.135Z,62.04
2022-12-03T18:47:43.301Z,61.75
2022-12-03T18:50:11.579Z,62.19
2022-12-03T18:52:38.666Z,62.30
2022-12-03T18:55:07.339Z,62.35
2022-12-03T18:57:33.847Z,61.92
2022-12-03T19:00:00.501Z,61.94
2022-12-03T19:02:54.121Z,61.71
2022-12-03T19:05:13.515Z,62.66
2022-12-03T19:07:40.044Z,62.43
2022-12-03T19:10:07.748Z,61.76
2022-12-03T19:12:34.324Z,61.66
2022-12-03T19:15:01.267Z,62.28
2022-12-03T19:17:27.885Z,62.30
2022-12-03T19:19:55.235Z,62.01
2022-12-03T19:22:22.437Z,62.04
2022-12-03T19:24:48.898Z,61.95
2022-12-03T19:27:15.640Z,61.50
2022-12-03T19:29:42.281Z,61.31
2022-12-03T19:32:08.905Z,61.82
2022-12-03T19:34:36.031Z,61.74
2022-12-03T19:37:02.516Z,62.54
2022-12-03T19:39:29.024Z,62.25
2022-12-03T19:41:55.582Z,62.65
2022-12-03T19:44:22.044Z,63.07
2022-12-03T19:46:51.266Z,62.21
2022-12-03T19:49:20.784Z,61.95
2022-12-03T19:51:48.019Z,62.23
2022-12-03T19:54:15.163Z,62.71
2022-12-03T19:56:41.871Z,62.36
2022-12-03T19:59:10.817Z,62.51
2022-12-03T20:01:40.409Z,62.58
2022-12-03T20:04:08.019Z,62.36
2022-12-03T20:06:39.520Z,61.99
2022-12-03T20:09:13.482Z,62.64
2022-12-03T20:11:41.544Z,62.21
2022-12-03T20:14:14.697Z,61.79
2022-12-03T20:16:41.612Z,62.31
2022-12-03T20:19:12.362Z,61.91
2022-12-03T20:21:40.216Z,61.85
2022-12-03T20:24:10.101Z,62.06
2022-12-03T20:26:36.623Z,62.42
2022-12-03T20:29:03.330Z,62.41
2022-12-03T20:31:31.806Z,62.22
2022-12-03T20:34:02.773Z,61.94
2022-12-03T20:36:31.975Z,62.21
2022-12-03T20:39:07.052Z,62.47
2022-12-03T20:41:37.598Z,62.58
2022-12-03T20:44:07.444Z,62.60
2022-12-03T20:46:34.417Z,62.37
2022-12-03T20:49:01.089Z,62.48
2022-12-03T20:51:30.687Z,62.74
2022-12-03T20:54:00.462Z,62.75
2022-12-03T20:56:35.030Z,62.68
2022-12-03T20:59:07.569Z,61.55
2022-12-03T21:01:36.042Z,61.15
2022-12-03T21:04:04.575Z,61.70
2022-12-03T21:06:33.964Z,61.67
2022-12-03T21:09:00.893Z,61.42
2022-12-03T21:11:32.004Z,61.61
2022-12-03T21:14:00.055Z,61.79
2022-12-03T21:19:22.993Z,61.58
2022-12-03T21:21:49.724Z,61.61
2022-12-03T21:24:16.338Z,62.40
2022-12-03T21:26:42.926Z,61.92
2022-12-03T21:29:09.643Z,61.85
2022-12-03T21:31:37.795Z,62.14
2022-12-03T21:34:05.003Z,62.47
2022-12-03T21:36:32.025Z,62.18
2022-12-03T21:38:58.511Z,62.07
2022-12-03T21:41:24.959Z,62.38
2022-12-03T21:43:52.064Z,61.75
2022-12-03T21:47:10.664Z,62.00
2022-12-03T21:49:05.663Z,62.50
2022-12-03T21:51:32.152Z,62.06
2022-12-03T21:53:58.653Z,61.76
2022-12-03T21:56:25.213Z,61.67
2022-12-03T21:58:51.697Z,61.48
2022-12-03T22:01:21.910Z,61.17
2022-12-03T22:03:49.353Z,61.00
2022-12-03T22:06:16.935Z,60.98
2022-12-03T22:08:44.249Z,61.63
2022-12-03T22:11:20.540Z,61.84
2022-12-03T22:13:47.735Z,61.89
2022-12-03T22:16:21.028Z,61.52
2022-12-03T22:18:48.369Z,61.70
2022-12-03T22:21:19.410Z,61.52
2022-12-03T22:23:46.305Z,61.38
2022-12-03T22:26:16.059Z,61.71
2022-12-03T22:28:49.624Z,62.43
2022-12-03T22:31:18.364Z,62.17
2022-12-03T22:33:48.069Z,61.43
2022-12-03T22:36:20.870Z,61.69
2022-12-03T22:38:49.999Z,61.43
2022-12-03T22:41:17.139Z,61.16
2022-12-03T22:43:45.250Z,60.95
2022-12-03T22:46:12.712Z,61.25
2022-12-03T22:48:45.292Z,60.94
2022-12-03T22:51:22.732Z,60.14
2022-12-03T22:53:56.118Z,60.45
2022-12-03T22:56:23.444Z,60.35
2022-12-03T22:58:49.953Z,60.61
2022-12-03T23:01:29.616Z,59.93
2022-12-03T23:03:56.819Z,60.54
2022-12-03T23:06:24.427Z,60.40
2022-12-03T23:08:52.372Z,60.62
2022-12-03T23:11:20.176Z,60.13
2022-12-03T23:13:46.849Z,60.43
2022-12-03T23:16:17.877Z,60.94
2022-12-03T23:18:45.082Z,60.65
2022-12-03T23:21:18.028Z,60.25
2022-12-03T23:23:44.872Z,60.95
2022-12-03T23:26:13.680Z,60.75
2022-12-03T23:28:43.076Z,61.06
2022-12-03T23:31:29.355Z,60.75
2022-12-03T23:33:57.458Z,60.96
2022-12-03T23:36:26.985Z,61.87
2022-12-03T23:38:54.619Z,61.91
2022-12-03T23:41:23.389Z,62.03
2022-12-03T23:43:49.988Z,61.64
2022-12-03T23:46:21.210Z,61.63
2022-12-03T23:48:48.599Z,62.01
2022-12-03T23:51:23.720Z,61.94
2022-12-03T23:53:51.161Z,61.88
2022-12-03T23:56:22.069Z,61.80
2022-12-03T23:58:49.058Z,61.69
